Time;durP1;ratioP1;P1;durP2;ratioP2;P2;SDS_P1;SDS_P2;PMS_P1;PMS_P2;Temp;Humidity;BMP_temperature;BMP_pressure;BME280_temperature;BME280_humidity;BME280_pressure;Samples;Min_cycle;Max_cycle;Signal;HPM_P1;HPM_P2
2024/03/16 00:04:24;;;;;;;2.38;1.45;;;;;;;9.74;91.03;100551.03;4934009;29;20063;-83
2024/03/16 00:07:07;;;;;;;4.05;1.80;;;;;;;9.71;90.59;100540.72;4934947;29;20067;-83
2024/03/16 00:09:51;;;;;;;4.70;1.67;;;;;;;9.71;89.54;100550.44;4939234;29;20119;-85
2024/03/16 00:12:28;;;;;;;3.85;1.77;;;;;;;9.55;89.64;100543.81;4970449;28;20062;-84
2024/03/16 00:15:00;;;;;;;2.13;1.58;;;;;;;9.50;89.39;100546.00;4962149;29;20059;-84
2024/03/16 00:17:27;;;;;;;5.47;2.10;;;;;;;9.43;90.00;100562.50;4976829;23;20070;-84
2024/03/16 00:19:55;;;;;;;3.45;1.55;;;;;;;9.35;90.85;100576.34;4961300;29;20044;-81
2024/03/16 00:22:21;;;;;;;6.28;2.25;;;;;;;9.31;90.71;100569.63;4933607;29;20036;-84
2024/03/16 00:24:49;;;;;;;5.75;1.70;;;;;;;9.28;90.45;100575.16;4930730;29;20112;-84
2024/03/16 00:27:16;;;;;;;3.28;1.63;;;;;;;9.27;91.16;100581.41;4963903;28;20123;-84
2024/03/16 00:29:43;;;;;;;5.00;1.80;;;;;;;9.31;90.68;100580.19;4969476;29;20047;-83
2024/03/16 00:32:11;;;;;;;3.08;1.80;;;;;;;9.31;90.79;100574.91;4975878;23;20058;-81
2024/03/16 00:34:37;;;;;;;3.60;1.50;;;;;;;9.33;90.59;100575.63;4929944;29;20115;-81
2024/03/16 00:37:05;;;;;;;2.65;1.52;;;;;;;9.31;90.32;100570.47;4928664;29;20079;-81
2024/03/16 00:39:31;;;;;;;2.72;1.25;;;;;;;9.38;90.08;100576.09;4927850;29;20098;-81
2024/03/16 00:41:59;;;;;;;3.05;1.70;;;;;;;9.30;91.87;100575.91;4958060;28;20079;-80
2024/03/16 00:44:26;;;;;;;4.40;1.58;;;;;;;9.36;90.23;100575.38;4925233;29;20059;-81
2024/03/16 00:46:53;;;;;;;6.70;1.67;;;;;;;9.38;90.03;100569.97;4922067;29;20058;-80
2024/03/16 00:49:20;;;;;;;3.78;1.38;;;;;;;9.38;90.53;100560.25;4921948;29;20071;-80
2024/03/16 00:51:47;;;;;;;4.35;1.90;;;;;;;9.47;89.48;100567.41;4927848;29;20078;-79
2024/03/16 00:54:23;;;;;;;5.63;2.97;;;;;;;9.49;90.56;100561.97;4926343;29;20048;-80
2024/03/16 00:56:53;;;;;;;3.60;1.88;;;;;;;9.48;89.91;100570.88;4925314;29;20060;-80
2024/03/16 00:59:20;;;;;;;4.25;1.83;;;;;;;9.49;91.20;100570.75;4953200;29;20051;-79
2024/03/16 01:01:47;;;;;;;5.75;1.77;;;;;;;9.48;89.94;100563.78;4927582;29;20071;-78
2024/03/16 01:04:14;;;;;;;4.90;1.60;;;;;;;9.58;89.72;100567.31;4924585;29;20059;-78
2024/03/16 01:06:41;;;;;;;3.35;1.55;;;;;;;9.62;89.35;100573.19;4922359;29;20473;-80
2024/03/16 01:09:07;;;;;;;4.50;1.77;;;;;;;9.61;88.93;100575.00;4953236;29;20150;-80
2024/03/16 01:11:34;;;;;;;2.72;1.98;;;;;;;9.60;89.60;100575.97;4954493;28;20126;-80
2024/03/16 01:14:01;;;;;;;4.53;1.65;;;;;;;9.60;89.49;100575.97;4954278;29;20075;-79
2024/03/16 01:16:27;;;;;;;2.22;1.30;;;;;;;9.57;90.34;100580.69;4922722;29;20074;-79
2024/03/16 01:18:54;;;;;;;5.05;1.55;;;;;;;9.54;90.17;100576.47;4917899;29;20058;-79
2024/03/16 01:21:21;;;;;;;3.97;1.55;;;;;;;9.49;90.10;100578.66;4921106;29;20128;-81
2024/03/16 01:23:48;;;;;;;4.00;1.35;;;;;;;9.51;90.21;100576.75;4921057;29;20051;-80
2024/03/16 01:26:15;;;;;;;4.72;1.60;;;;;;;9.49;90.12;100583.94;4952272;29;20079;-77
2024/03/16 01:28:41;;;;;;;2.35;1.40;;;;;;;9.52;90.54;100582.88;4922115;29;20079;-79
2024/03/16 01:31:08;;;;;;;4.40;1.30;;;;;;;9.49;90.77;100578.66;4921035;29;20134;-79
2024/03/16 01:33:35;;;;;;;4.10;1.17;;;;;;;9.49;90.87;100583.94;4959605;28;20134;-78
2024/03/16 01:36:03;;;;;;;3.05;1.27;;;;;;;9.49;91.51;100580.47;4921420;29;20115;-78
2024/03/16 01:38:30;;;;;;;2.67;1.52;;;;;;;9.49;91.72;100583.13;4952312;29;20052;-78
2024/03/16 01:40:56;;;;;;;3.40;1.63;;;;;;;9.45;91.60;100574.59;4959673;28;20062;-79
2024/03/16 01:43:23;;;;;;;3.63;1.48;;;;;;;9.47;91.64;100585.06;4953685;29;20135;-79
2024/03/16 01:45:50;;;;;;;6.57;1.95;;;;;;;9.38;91.85;100584.03;4953239;29;20067;-77
2024/03/16 01:48:17;;;;;;;3.60;1.85;;;;;;;9.47;91.19;100585.91;4953213;29;20120;-79
2024/03/16 01:50:44;;;;;;;4.60;1.60;;;;;;;9.48;91.40;100577.00;4959348;28;20395;-79
2024/03/16 01:53:11;;;;;;;6.85;2.33;;;;;;;9.52;91.38;100583.69;4953573;29;20047;-79
2024/03/16 01:55:38;;;;;;;3.80;1.50;;;;;;;9.43;91.31;100579.19;4952869;29;20071;-79
2024/03/16 01:58:06;;;;;;;4.85;2.05;;;;;;;9.43;91.92;100584.47;4953747;29;20300;-80
2024/03/16 02:00:32;;;;;;;5.40;2.33;;;;;;;9.42;91.98;100581.94;4928283;28;20283;-80
2024/03/16 02:02:59;;;;;;;7.40;2.50;;;;;;;9.35;92.46;100590.38;4953273;29;20056;-80
2024/03/16 02:05:26;;;;;;;3.58;2.03;;;;;;;9.44;92.31;100582.66;4954155;28;20071;-81
2024/03/16 02:07:53;;;;;;;5.88;2.40;;;;;;;9.46;92.78;100584.19;4957641;29;20055;-80
2024/03/16 02:10:19;;;;;;;8.82;2.80;;;;;;;9.50;92.47;100590.91;4926970;29;20509;-79
2024/03/16 02:12:46;;;;;;;7.68;2.30;;;;;;;9.55;93.02;100582.59;4927318;29;20071;-78
2024/03/16 02:15:13;;;;;;;5.55;2.60;;;;;;;9.55;93.38;100586.09;4958229;29;20075;-80
2024/03/16 02:17:40;;;;;;;6.47;2.83;;;;;;;9.53;93.33;100598.59;4956534;29;20090;-78
2024/03/16 02:20:09;;;;;;;8.98;2.83;;;;;;;9.57;93.47;100584.16;4955902;28;20442;-79
2024/03/16 02:22:36;;;;;;;6.20;3.05;;;;;;;9.62;93.32;100589.03;4956949;28;20051;-80
2024/03/16 02:25:03;;;;;;;8.45;3.25;;;;;;;9.62;93.39;100595.16;4957071;29;20043;-80
2024/03/16 02:27:29;;;;;;;7.60;3.05;;;;;;;9.66;93.67;100592.28;4956652;29;20047;-79
2024/03/16 02:29:56;;;;;;;6.47;2.80;;;;;;;9.58;93.42;100584.97;4959035;28;20138;-79
2024/03/16 02:32:23;;;;;;;12.15;3.83;;;;;;;9.59;94.07;100584.00;4930359;29;20047;-78
2024/03/16 02:34:50;;;;;;;8.52;3.58;;;;;;;9.52;93.97;100589.00;4956922;29;20115;-79
2024/03/16 02:37:18;;;;;;;9.75;3.30;;;;;;;9.47;94.77;100591.19;4958207;28;20106;-80
2024/03/16 02:39:45;;;;;;;7.25;2.80;;;;;;;9.39;95.11;100590.97;4956115;29;20127;-79
2024/03/16 02:42:12;;;;;;;6.57;3.40;;;;;;;9.31;95.58;100593.41;4957144;29;20058;-79
2024/03/16 02:44:40;;;;;;;6.03;3.50;;;;;;;9.30;95.32;100597.03;4959125;29;20130;-78
2024/03/16 02:47:07;;;;;;;8.52;3.65;;;;;;;9.38;95.17;100607.78;4925693;29;20075;-78
2024/03/16 02:49:35;;;;;;;10.95;4.07;;;;;;;9.40;95.40;100605.84;4962043;29;20067;-79
2024/03/16 02:52:03;;;;;;;12.27;4.05;;;;;;;9.42;95.68;100608.34;4958176;29;20142;-79
2024/03/16 02:54:30;;;;;;;6.82;3.30;;;;;;;9.46;95.91;100604.50;4957715;29;20107;-79
2024/03/16 02:57:05;;;;;;;9.90;3.88;;;;;;;9.51;95.54;100608.44;4963076;28;20491;-79
2024/03/16 02:59:32;;;;;;;7.68;4.47;;;;;;;9.60;95.23;100617.41;4955622;29;20123;-79
2024/03/16 03:01:59;;;;;;;8.30;4.70;;;;;;;9.66;94.99;100618.69;4956476;29;20139;-79
2024/03/16 03:04:26;;;;;;;10.30;4.60;;;;;;;9.69;95.17;100611.34;4955644;29;20051;-79
2024/03/16 03:06:52;;;;;;;8.82;4.80;;;;;;;9.74;95.13;100618.91;4957684;28;20098;-79
2024/03/16 03:09:20;;;;;;;12.02;5.50;;;;;;;9.75;95.13;100621.41;4929308;29;20079;-79
2024/03/16 03:11:46;;;;;;;11.18;5.78;;;;;;;9.77;95.10;100623.91;4955201;29;20146;-79
2024/03/16 03:14:15;;;;;;;10.80;6.00;;;;;;;9.78;95.34;100625.59;4955557;29;20120;-80
2024/03/16 03:16:41;;;;;;;11.95;5.53;;;;;;;9.75;95.64;100625.84;4954302;28;20119;-79
2024/03/16 03:19:08;;;;;;;10.65;5.90;;;;;;;9.74;95.85;100632.13;4955836;29;20083;-79
2024/03/16 03:21:35;;;;;;;9.18;6.15;;;;;;;9.73;95.68;100619.84;4955652;28;20107;-79
2024/03/16 03:24:03;;;;;;;13.10;6.63;;;;;;;9.76;95.46;100630.16;4954864;29;20132;-80
2024/03/16 03:26:32;;;;;;;14.20;7.00;;;;;;;9.71;95.91;100629.72;4955680;28;20374;-79
2024/03/16 03:29:00;;;;;;;12.35;7.20;;;;;;;9.74;95.34;100632.13;4949369;28;20483;-79
2024/03/16 03:31:27;;;;;;;12.45;5.93;;;;;;;9.73;95.53;100628.63;4960549;29;20469;-80
2024/03/16 03:33:53;;;;;;;8.75;5.72;;;;;;;9.71;96.09;100637.66;4955776;29;20470;-80
2024/03/16 03:36:23;;;;;;;14.52;6.45;;;;;;;9.71;95.80;100635.84;4961170;28;20135;-80
2024/03/16 03:38:49;;;;;;;15.45;6.18;;;;;;;9.70;96.13;100634.16;4955293;29;20056;-79
2024/03/16 03:41:18;;;;;;;11.43;6.40;;;;;;;9.67;96.54;100639.69;4923445;29;20573;-79
2024/03/16 03:43:47;;;;;;;11.02;5.65;;;;;;;9.71;96.73;100645.56;4955466;29;20058;-79
2024/03/16 03:46:28;;;;;;;10.85;6.88;;;;;;;9.70;96.36;100641.25;4959778;28;20130;-79
2024/03/16 03:49:10;;;;;;;12.50;7.13;;;;;;;9.71;96.60;100635.00;4953386;29;20502;-79
2024/03/16 03:51:37;;;;;;;12.80;7.63;;;;;;;9.77;96.35;100637.94;4954722;29;20055;-81
2024/03/16 03:54:04;;;;;;;16.17;8.23;;;;;;;9.81;95.85;100641.19;4956254;29;20051;-81
2024/03/16 03:56:31;;;;;;;14.15;7.70;;;;;;;9.79;95.85;100646.59;4956101;28;20169;-80
2024/03/16 03:58:57;;;;;;;16.17;6.72;;;;;;;9.80;96.16;100640.34;4956902;29;20079;-80
2024/03/16 04:01:24;;;;;;;13.55;7.07;;;;;;;9.84;95.73;100646.22;4955767;29;20127;-80
2024/03/16 04:03:51;;;;;;;12.68;6.47;;;;;;;9.84;95.63;100644.41;4955133;29;20087;-79
2024/03/16 04:06:17;;;;;;;13.80;7.30;;;;;;;9.89;94.93;100654.59;4955811;28;20111;-80
2024/03/16 04:08:44;;;;;;;10.43;6.80;;;;;;;9.91;95.21;100663.25;4955246;29;20071;-77
2024/03/16 04:11:11;;;;;;;14.13;6.65;;;;;;;9.94;94.98;100662.97;4954382;28;20087;-79
2024/03/16 04:13:36;;;;;;;13.18;7.18;;;;;;;9.94;95.06;100655.03;4955055;29;20111;-79
2024/03/16 04:16:03;;;;;;;15.13;7.32;;;;;;;10.01;94.59;100653.56;4959793;28;20048;-79
2024/03/16 04:18:30;;;;;;;10.13;5.97;;;;;;;10.02;93.96;100647.31;4955795;29;20055;-79
2024/03/16 04:20:56;;;;;;;13.45;6.60;;;;;;;9.96;93.85;100650.47;4955456;28;20086;-80
2024/03/16 04:23:23;;;;;;;12.77;6.40;;;;;;;9.95;94.18;100650.59;4955197;29;20062;-79
2024/03/16 04:25:50;;;;;;;10.27;6.47;;;;;;;10.03;93.56;100662.19;4959821;28;20139;-79
2024/03/16 04:28:17;;;;;;;10.43;6.30;;;;;;;10.04;93.14;100653.28;4955745;28;20137;-80
2024/03/16 04:30:45;;;;;;;10.57;6.93;;;;;;;10.07;93.22;100658.31;4958523;29;20119;-81
2024/03/16 04:33:15;;;;;;;11.68;7.35;;;;;;;10.02;93.12;100654.41;4925431;29;20106;-79
2024/03/16 04:35:42;;;;;;;14.65;6.75;;;;;;;10.02;93.63;100665.81;4961299;28;20046;-80
2024/03/16 04:38:09;;;;;;;13.30;6.72;;;;;;;10.02;93.47;100662.34;4962214;28;20495;-80
2024/03/16 04:40:36;;;;;;;11.52;6.63;;;;;;;10.12;92.93;100672.00;4927075;29;20063;-80
2024/03/16 04:43:02;;;;;;;11.45;6.10;;;;;;;10.12;92.36;100671.16;4957009;29;20134;-80
2024/03/16 04:45:29;;;;;;;12.65;6.38;;;;;;;10.09;92.37;100676.72;4958889;28;20111;-79
2024/03/16 04:47:56;;;;;;;11.65;6.40;;;;;;;10.10;92.28;100673.09;4923769;29;20564;-79
2024/03/16 04:50:24;;;;;;;9.07;6.60;;;;;;;10.09;92.25;100677.56;4926063;29;20586;-79
2024/03/16 04:52:50;;;;;;;11.90;6.25;;;;;;;10.10;92.28;100681.03;4953942;29;20060;-80
2024/03/16 04:55:17;;;;;;;10.63;6.25;;;;;;;10.10;92.80;100699.56;4955045;28;20130;-79
2024/03/16 04:57:44;;;;;;;11.02;7.35;;;;;;;10.07;93.41;100699.81;4923442;29;20107;-79
2024/03/16 05:00:12;;;;;;;10.38;6.53;;;;;;;9.95;94.43;100696.38;4956218;28;20083;-78
2024/03/16 05:02:39;;;;;;;10.10;6.45;;;;;;;9.93;94.92;100703.59;4954268;29;20439;-79
2024/03/16 05:05:06;;;;;;;15.20;6.53;;;;;;;9.90;95.85;100701.22;4956069;29;20136;-79
2024/03/16 05:07:34;;;;;;;9.70;6.82;;;;;;;9.89;95.93;100699.53;4924818;29;20086;-79
2024/03/16 05:10:03;;;;;;;11.13;6.43;;;;;;;9.90;96.14;100703.00;4953936;29;20441;-78
2024/03/16 05:12:30;;;;;;;11.95;6.95;;;;;;;9.82;97.17;100707.16;4953793;29;20495;-79
2024/03/16 05:14:57;;;;;;;10.18;6.80;;;;;;;9.84;97.42;100714.94;4956349;28;20126;-79
2024/03/16 05:17:23;;;;;;;12.23;7.10;;;;;;;9.86;97.35;100713.00;4956277;29;20143;-79
2024/03/16 05:19:52;;;;;;;11.35;6.85;;;;;;;9.79;98.33;100706.56;4958383;29;20196;-79
2024/03/16 05:22:18;;;;;;;9.48;6.80;;;;;;;9.74;98.84;100709.59;4957986;28;20055;-80
2024/03/16 05:24:45;;;;;;;11.10;6.93;;;;;;;9.78;98.83;100718.09;4960176;28;20075;-80
2024/03/16 05:27:15;;;;;;;12.93;7.38;;;;;;;9.72;99.40;100716.78;4928260;29;20052;-80
2024/03/16 05:29:42;;;;;;;12.73;7.03;;;;;;;9.76;98.71;100723.50;4960408;29;20047;-80
2024/03/16 05:32:08;;;;;;;16.17;8.23;;;;;;;9.74;99.52;100735.19;4961788;29;20056;-80
2024/03/16 05:34:35;;;;;;;11.65;7.25;;;;;;;9.76;99.41;100735.88;4961567;28;20048;-80
2024/03/16 05:37:02;;;;;;;11.45;8.00;;;;;;;9.75;99.41;100739.50;4959416;29;20047;-79
2024/03/16 05:39:29;;;;;;;11.82;8.48;;;;;;;9.79;99.04;100743.56;4960145;29;20098;-79
2024/03/16 05:41:56;;;;;;;11.00;8.52;;;;;;;9.79;99.34;100747.03;4964526;29;20058;-80
2024/03/16 05:44:22;;;;;;;11.95;8.30;;;;;;;9.85;98.70;100748.34;4960820;28;20071;-78
2024/03/16 05:46:49;;;;;;;14.52;8.45;;;;;;;9.83;98.17;100747.63;4958315;29;20090;-79
2024/03/16 05:49:16;;;;;;;13.27;8.27;;;;;;;9.84;98.67;100758.06;4923625;29;20107;-79
2024/03/16 05:51:43;;;;;;;15.73;9.27;;;;;;;9.85;99.05;100761.56;4945709;29;20053;-78
2024/03/16 05:54:10;;;;;;;15.60;8.95;;;;;;;9.81;99.33;100768.88;4965918;28;20051;-79
2024/03/16 05:56:39;;;;;;;15.60;9.23;;;;;;;9.75;100.00;100771.22;4932911;29;20047;-79
2024/03/16 05:59:08;;;;;;;17.67;9.48;;;;;;;9.74;100.00;100777.47;4958500;29;20058;-77
2024/03/16 06:01:36;;;;;;;18.38;9.57;;;;;;;9.69;100.00;100777.84;4927892;29;20062;-78
2024/03/16 06:04:03;;;;;;;13.73;8.73;;;;;;;9.68;100.00;100781.41;4960903;28;20435;-78
2024/03/16 06:06:31;;;;;;;16.63;9.60;;;;;;;9.75;100.00;100779.97;4960052;28;20051;-79
2024/03/16 06:08:58;;;;;;;17.90;10.20;;;;;;;9.83;99.69;100782.00;4959597;29;20067;-79
2024/03/16 06:11:26;;;;;;;15.55;9.93;;;;;;;9.81;99.94;100794.47;4929088;29;20166;-79
2024/03/16 06:13:53;;;;;;;19.92;10.98;;;;;;;9.84;99.97;100796.88;4960183;29;20082;-78
2024/03/16 06:16:21;;;;;;;25.23;12.25;;;;;;;9.83;100.00;100809.25;4959848;29;20051;-79
2024/03/16 06:18:48;;;;;;;23.67;12.40;;;;;;;9.88;99.90;100816.81;4929146;29;20051;-79
2024/03/16 06:21:14;;;;;;;23.95;13.38;;;;;;;9.85;100.00;100827.63;4959032;29;20097;-79
2024/03/16 06:23:41;;;;;;;21.67;12.07;;;;;;;9.84;100.00;100842.66;4964426;28;20063;-79
2024/03/16 06:26:16;;;;;;;21.33;10.82;;;;;;;9.83;100.00;100846.28;4958963;29;20044;-79
2024/03/16 06:28:46;;;;;;;19.92;11.70;;;;;;;9.70;99.63;100850.88;4958280;29;20055;-79
2024/03/16 08:33:54;;;;;;;7.78;5.03;;;;;;;9.41;85.93;101177.25;5157301;23;20047;-87
2024/03/16 08:40:51;;;;;;;6.80;4.15;;;;;;;9.69;80.64;101182.19;4898220;29;20052;-87
2024/03/16 11:38:15;;;;;;;7.45;2.97;;;;;;;10.22;73.40;101486.72;4854163;29;20057;-82
2024/03/16 12:23:53;;;;;;;4.97;2.50;;;;;;;10.77;63.79;101534.84;1134727;23;20347;-87
2024/03/16 15:11:04;;;;;;;7.85;3.78;;;;;;;10.36;65.37;101639.25;4892089;23;20069;-80
2024/03/16 15:13:30;;;;;;;5.88;3.45;;;;;;;10.47;65.10;101644.63;4836015;29;20058;-83
2024/03/16 15:15:57;;;;;;;10.45;3.50;;;;;;;10.54;64.51;101647.69;4848606;29;20049;-82
2024/03/16 15:18:36;;;;;;;4.70;3.00;;;;;;;10.49;65.16;101633.91;4856143;29;20053;-83
2024/03/16 15:21:30;;;;;;;8.48;3.20;;;;;;;10.34;66.45;101639.34;4854342;29;20058;-83
2024/03/16 15:23:56;;;;;;;5.88;3.67;;;;;;;10.18;65.31;101645.78;4859544;24;20045;-77
2024/03/16 15:26:32;;;;;;;8.15;3.40;;;;;;;10.28;66.17;101636.28;4846455;29;20045;-77
2024/03/16 15:28:58;;;;;;;7.75;3.60;;;;;;;10.35;65.96;101640.19;4826165;29;20153;-78
2024/03/16 15:31:25;;;;;;;7.50;3.90;;;;;;;10.40;67.27;101648.63;4843690;29;20053;-78
2024/03/16 15:33:51;;;;;;;10.15;3.67;;;;;;;10.37;65.06;101649.72;4837453;29;20058;-78
2024/03/16 15:36:18;;;;;;;6.72;3.83;;;;;;;10.27;65.58;101648.69;4827446;29;20061;-79
2024/03/16 15:38:44;;;;;;;6.65;3.05;;;;;;;10.32;64.71;101635.13;4828528;29;20154;-78
2024/03/16 15:41:11;;;;;;;7.18;3.38;;;;;;;10.23;65.75;101648.97;4833376;29;20054;-80
2024/03/16 15:43:36;;;;;;;5.35;3.40;;;;;;;10.16;64.53;101652.97;4831634;29;20065;-79
2024/03/16 15:46:03;;;;;;;6.97;3.70;;;;;;;10.12;65.57;101652.34;4833400;29;20502;-80
2024/03/16 15:48:29;;;;;;;9.27;3.70;;;;;;;10.18;64.88;101662.50;4833049;29;20077;-80
2024/03/16 15:50:55;;;;;;;7.07;4.15;;;;;;;10.15;65.33;101669.81;4835729;29;20425;-78
2024/03/16 15:53:23;;;;;;;6.85;4.00;;;;;;;10.15;65.08;101661.88;4842917;29;20068;-78
2024/03/16 15:55:51;;;;;;;5.13;3.58;;;;;;;10.11;64.65;101664.72;4837974;29;20054;-80
2024/03/16 15:58:19;;;;;;;5.80;3.50;;;;;;;10.09;65.66;101666.63;4833169;29;20089;-80
2024/03/16 16:00:46;;;;;;;7.20;3.40;;;;;;;10.05;66.26;101665.16;4833745;29;20050;-80
2024/03/16 16:03:12;;;;;;;8.32;2.90;;;;;;;10.08;65.78;101670.22;4832793;29;20091;-80
2024/03/16 16:05:39;;;;;;;8.52;3.33;;;;;;;10.20;64.22;101668.53;4832296;29;20126;-80
2024/03/16 16:08:05;;;;;;;4.20;2.92;;;;;;;10.02;65.38;101662.72;4833044;29;20050;-81
2024/03/16 16:10:31;;;;;;;5.22;3.03;;;;;;;10.00;64.71;101661.09;4834215;29;20054;-79
2024/03/16 16:12:59;;;;;;;7.68;3.47;;;;;;;9.97;66.33;101669.28;4835440;29;20069;-79
2024/03/16 16:15:27;;;;;;;7.40;3.42;;;;;;;10.05;67.95;101662.50;4839635;29;20058;-79
2024/03/16 16:17:53;;;;;;;6.10;3.50;;;;;;;10.06;65.56;101666.00;4833890;29;20082;-79
2024/03/16 16:20:20;;;;;;;6.85;3.58;;;;;;;9.98;65.17;101668.31;4841083;29;20057;-80
2024/03/16 16:22:46;;;;;;;6.97;3.90;;;;;;;9.79;64.03;101669.56;4838405;29;20110;-79
2024/03/16 16:25:13;;;;;;;8.52;3.50;;;;;;;9.90;64.06;101674.13;4833543;29;20087;-81
2024/03/16 16:27:38;;;;;;;8.90;3.72;;;;;;;9.83;64.83;101673.69;4833251;29;20057;-79
2024/03/16 16:30:06;;;;;;;5.05;3.15;;;;;;;9.85;64.65;101677.06;4833149;29;20061;-79
2024/03/16 16:32:32;;;;;;;5.90;3.17;;;;;;;9.78;64.78;101680.25;4835939;29;20462;-79
2024/03/16 16:34:59;;;;;;;7.63;3.60;;;;;;;9.81;64.92;101675.59;4826267;29;20334;-78
2024/03/16 16:37:25;;;;;;;6.45;3.33;;;;;;;9.75;64.94;101683.09;4834180;29;20482;-80
2024/03/16 16:39:51;;;;;;;8.02;3.40;;;;;;;9.77;64.56;101687.31;4835729;29;20050;-79
2024/03/16 16:42:20;;;;;;;7.22;3.60;;;;;;;9.75;64.50;101691.03;4835602;29;20049;-79
2024/03/16 16:44:46;;;;;;;7.50;3.53;;;;;;;9.79;64.60;101693.34;4837168;29;20050;-79
2024/03/16 16:47:12;;;;;;;7.72;3.63;;;;;;;9.73;64.87;101687.63;4833089;29;20084;-80
2024/03/16 16:49:39;;;;;;;11.13;3.50;;;;;;;9.77;64.18;101691.75;4834688;29;20450;-79
2024/03/16 16:52:04;;;;;;;7.03;3.30;;;;;;;9.73;63.38;101695.56;4842730;29;20058;-78
2024/03/16 16:54:31;;;;;;;7.78;3.33;;;;;;;9.83;64.20;101699.28;4843075;29;20058;-79
2024/03/16 16:56:57;;;;;;;6.50;3.50;;;;;;;9.80;65.10;101707.41;4845951;29;20061;-78
2024/03/16 16:59:24;;;;;;;6.45;3.13;;;;;;;9.79;64.83;101701.28;4846573;29;20267;-79
2024/03/16 17:01:49;;;;;;;5.78;3.20;;;;;;;9.84;64.04;101699.19;4841629;29;20089;-79
2024/03/16 17:04:16;;;;;;;5.10;3.33;;;;;;;9.74;64.94;101699.91;4840857;29;20056;-78
2024/03/16 17:06:42;;;;;;;5.80;3.60;;;;;;;9.53;66.27;101716.22;4834492;29;20514;-78
2024/03/16 17:09:09;;;;;;;10.40;4.03;;;;;;;9.61;65.48;101713.09;4835646;29;20065;-78
2024/03/16 17:11:35;;;;;;;7.28;4.20;;;;;;;9.55;65.20;101718.75;4836905;29;20054;-78
2024/03/16 17:14:01;;;;;;;9.27;4.20;;;;;;;9.49;64.76;101724.47;4845929;29;20115;-77
2024/03/16 17:16:27;;;;;;;9.43;3.83;;;;;;;9.44;65.01;101716.81;4838745;29;20077;-77
2024/03/16 17:18:54;;;;;;;8.35;3.67;;;;;;;9.44;64.96;101715.97;4831953;29;20065;-78
2024/03/16 17:21:20;;;;;;;4.22;3.25;;;;;;;9.39;65.37;101711.00;4831993;29;20083;-78
2024/03/16 17:23:47;;;;;;;9.63;4.00;;;;;;;9.34;66.12;101713.09;4835013;29;20164;-77
2024/03/16 17:26:15;;;;;;;13.25;4.60;;;;;;;9.31;65.60;101726.50;4834995;29;20549;-76
2024/03/16 17:28:42;;;;;;;10.27;4.57;;;;;;;9.23;65.86;101724.34;4829022;29;20069;-76
2024/03/16 17:31:08;;;;;;;10.30;4.78;;;;;;;9.18;63.87;101728.22;4829993;29;20054;-76
2024/03/16 17:33:37;;;;;;;8.13;4.20;;;;;;;9.14;65.57;101732.00;4829785;29;20061;-76
2024/03/16 17:36:03;;;;;;;10.45;4.65;;;;;;;9.20;64.76;101729.00;4829274;29;20096;-77
2024/03/16 17:38:30;;;;;;;11.70;4.75;;;;;;;9.20;64.14;101729.84;4829397;29;20118;-76
2024/03/16 17:40:55;;;;;;;11.55;5.40;;;;;;;9.18;64.26;101730.88;4827742;29;20074;-76
2024/03/16 17:43:28;;;;;;;18.58;10.18;;;;;;;9.15;64.48;101728.41;4827695;29;20065;-77
2024/03/16 17:46:08;;;;;;;9.73;5.03;;;;;;;9.17;64.64;101723.91;4829509;29;20058;-78
2024/03/16 17:48:36;;;;;;;8.63;4.70;;;;;;;9.14;65.52;101734.66;4842158;29;20050;-79
2024/03/16 17:51:02;;;;;;;7.38;4.70;;;;;;;9.04;66.37;101734.38;4828837;29;20114;-78
2024/03/16 17:53:29;;;;;;;10.95;4.75;;;;;;;8.90;66.05;101726.50;4835561;29;20676;-78
2024/03/16 17:55:56;;;;;;;177.95;84.63;;;;;;;8.89;67.82;101730.94;4835186;29;20064;-79
2024/03/16 17:58:23;;;;;;;15.10;8.45;;;;;;;8.91;66.82;101742.22;4829056;29;20054;-79
2024/03/16 18:00:49;;;;;;;9.02;4.93;;;;;;;8.84;68.16;101744.41;4829380;29;20125;-79
2024/03/16 18:03:16;;;;;;;8.23;3.92;;;;;;;8.79;67.67;101746.47;4828132;29;20057;-80
2024/03/16 18:05:41;;;;;;;6.40;4.15;;;;;;;8.73;69.02;101751.28;4827061;29;20141;-79
2024/03/16 18:08:13;;;;;;;6.47;4.03;;;;;;;8.80;68.95;101761.38;4828377;29;20049;-79
2024/03/16 18:10:39;;;;;;;10.05;5.93;;;;;;;8.80;69.01;101755.25;4830205;29;20497;-78
2024/03/16 18:13:06;;;;;;;6.03;4.55;;;;;;;8.73;69.66;101746.00;4831430;29;20061;-77
2024/03/16 18:15:31;;;;;;;11.38;5.05;;;;;;;8.79;69.26;101753.53;4836417;29;20062;-78
2024/03/16 18:18:04;;;;;;;8.00;5.00;;;;;;;8.77;69.75;101763.38;4830096;29;20106;-77
2024/03/16 18:20:31;;;;;;;10.57;5.10;;;;;;;8.86;69.40;101773.34;4829580;29;20054;-78
2024/03/16 18:23:03;;;;;;;8.00;5.55;;;;;;;8.87;69.03;101769.75;4828792;29;20466;-76
2024/03/16 18:25:36;;;;;;;12.23;6.50;;;;;;;8.92;68.14;101770.31;4853811;29;20140;-79
2024/03/16 18:28:01;;;;;;;6.90;4.15;;;;;;;8.93;68.82;101777.31;4847570;29;20150;-79
2024/03/16 18:30:28;;;;;;;11.15;5.28;;;;;;;8.80;69.92;101773.75;4844705;29;20081;-78
2024/03/16 18:32:54;;;;;;;13.82;6.55;;;;;;;8.63;68.35;101771.28;4843454;29;20157;-77
2024/03/16 18:35:22;;;;;;;18.33;10.70;;;;;;;8.63;69.34;101774.75;4844041;29;20076;-77
2024/03/16 18:37:48;;;;;;;20.85;12.25;;;;;;;8.64;69.70;101771.19;4844462;29;20088;-77
2024/03/16 18:40:16;;;;;;;14.90;9.98;;;;;;;8.69;70.47;101777.03;4844163;29;20062;-79
2024/03/16 18:42:42;;;;;;;11.68;7.90;;;;;;;8.72;70.77;101774.19;4845717;29;20074;-80
2024/03/16 18:45:10;;;;;;;9.95;5.70;;;;;;;8.76;70.66;101782.78;4848939;29;20050;-77
2024/03/16 18:47:36;;;;;;;8.20;4.50;;;;;;;8.66;71.33;101776.34;4849032;29;20062;-80
2024/03/16 18:50:09;;;;;;;10.07;5.70;;;;;;;8.57;71.67;101776.00;4849388;29;20054;-78
2024/03/16 18:52:39;;;;;;;9.35;5.32;;;;;;;8.50;71.06;101782.56;4850698;29;20046;-79
2024/03/16 18:55:07;;;;;;;9.80;6.22;;;;;;;8.58;70.42;101779.47;4845719;29;20050;-78
2024/03/16 18:57:35;;;;;;;8.27;5.13;;;;;;;8.53;68.92;101774.47;4845654;29;20117;-78
2024/03/16 19:00:17;;;;;;;8.95;6.05;;;;;;;8.47;69.63;101777.47;4847068;29;20081;-77
2024/03/16 19:02:43;;;;;;;9.20;5.28;;;;;;;8.46;69.73;101778.41;4849243;29;20064;-79
2024/03/16 19:05:10;;;;;;;10.80;6.13;;;;;;;8.42;69.72;101783.97;4847048;29;20050;-79
2024/03/16 19:07:36;;;;;;;10.18;5.63;;;;;;;8.39;70.44;101792.06;4847394;29;20048;-79
2024/03/16 19:10:03;;;;;;;11.45;5.53;;;;;;;8.42;70.59;101789.25;4847623;29;20526;-79
2024/03/16 19:12:31;;;;;;;11.15;5.55;;;;;;;8.46;70.70;101786.34;4852351;29;20076;-78
2024/03/16 19:15:04;;;;;;;9.70;6.15;;;;;;;8.52;70.19;101788.59;4849396;29;20058;-79
2024/03/16 19:17:30;;;;;;;10.05;5.82;;;;;;;8.48;70.19;101794.16;4849428;29;20245;-79
2024/03/16 19:25:45;;;;;;;15.23;7.07;;;;;;;8.51;70.72;101788.69;4826525;29;20053;-77
2024/03/16 19:28:11;;;;;;;12.13;6.85;;;;;;;8.52;69.84;101796.50;4857864;29;20050;-78
2024/03/16 19:30:41;;;;;;;12.15;7.65;;;;;;;8.56;70.18;101805.94;4849476;29;20402;-79
2024/03/16 19:33:06;;;;;;;12.20;7.60;;;;;;;8.51;70.26;101805.38;4845176;29;20058;-79
2024/03/16 19:35:35;;;;;;;14.98;9.43;;;;;;;8.41;70.72;101804.22;4853081;29;20102;-79
2024/03/16 19:38:00;;;;;;;12.80;8.30;;;;;;;8.51;72.24;101804.53;4849033;29;20132;-78
2024/03/16 19:40:36;;;;;;;16.77;12.10;;;;;;;8.37;75.71;101801.88;4864351;29;20096;-77
2024/03/16 19:43:05;;;;;;;15.13;10.18;;;;;;;8.33;76.90;101803.78;4846449;29;20399;-78
2024/03/16 19:45:31;;;;;;;12.98;9.25;;;;;;;8.19;77.81;101809.03;4857625;29;20053;-78
2024/03/16 19:47:58;;;;;;;9.95;6.03;;;;;;;8.05;77.34;101808.06;4850803;29;20088;-78
2024/03/16 19:50:27;;;;;;;7.05;5.25;;;;;;;7.93;77.47;101803.47;4861751;29;20121;-78
2024/03/16 19:52:53;;;;;;;8.40;5.63;;;;;;;7.85;78.17;101810.97;4849332;29;20081;-78
2024/03/16 19:55:26;;;;;;;10.23;6.25;;;;;;;7.86;78.14;101810.06;4851543;29;20485;-78
2024/03/16 19:57:52;;;;;;;12.15;7.47;;;;;;;7.75;78.37;101808.00;4850780;29;20084;-77
2024/03/16 20:00:20;;;;;;;13.65;8.18;;;;;;;7.75;78.88;101817.72;4845368;29;20536;-79
2024/03/16 20:02:47;;;;;;;13.98;7.45;;;;;;;7.81;79.38;101809.44;4851864;29;20065;-79
2024/03/16 20:05:17;;;;;;;14.38;7.88;;;;;;;7.98;78.55;101821.66;4850177;29;20054;-78
2024/03/16 20:07:42;;;;;;;10.52;7.70;;;;;;;8.06;78.37;101808.91;4855273;29;20050;-78